Terminal Aerodrome Forecast
Issued by NWS Melbourne, FL

Current Version | Previous Version | Text Only | Print | Product List | Glossary On
Versions: 1 2 3 4 5 6 7 8 9 10 11 12 13 14
000
FTUS42 KMLB 231740
TAFDAB
TAF
KDAB 231740Z 2318/2418 03011G16KT P6SM VCSH SCT008 BKN021 OVC035
     FM232000 02014G22KT P6SM -SHRA BKN015 BKN030
     FM240700 01010KT 3SM BR SCT008 OVC020
      TEMPO 2409/2412 4SM BR BKN006
     FM241300 02006KT P6SM SCT008 SCT025=

USA.gov is the U.S. government's official web portal to all federal, state and local government web resources and services.